createdAt,value
2022-11-12T00:00:43.583Z,102591.09
2022-11-12T00:03:10.896Z,102588.56
2022-11-12T00:05:37.759Z,102589.75
2022-11-12T00:08:04.636Z,102577.97
2022-11-12T00:10:32.520Z,102583.63
2022-11-12T00:12:59.667Z,102584.16
2022-11-12T00:15:26.996Z,102584.19
2022-11-12T00:17:54.279Z,102568.50
2022-11-12T00:20:21.477Z,102559.56
2022-11-12T00:22:48.348Z,102561.22
2022-11-12T00:25:15.839Z,102564.34
2022-11-12T00:27:42.890Z,102561.25
2022-11-12T00:30:10.107Z,102568.00
2022-11-12T00:32:37.965Z,102559.59
2022-11-12T00:35:06.751Z,102566.38
2022-11-12T00:37:34.078Z,102561.31
2022-11-12T00:40:00.837Z,102555.41
2022-11-12T00:42:27.680Z,102558.78
2022-11-12T00:44:54.400Z,102550.09
2022-11-12T00:47:21.236Z,102556.28
2022-11-12T00:49:48.128Z,102547.84
2022-11-12T00:52:15.212Z,102547.28
2022-11-12T00:54:42.099Z,102545.34
2022-11-12T00:57:08.938Z,102543.38
2022-11-12T00:59:35.863Z,102539.16
2022-11-12T01:02:02.729Z,102540.00
2022-11-12T01:04:29.595Z,102538.03
2022-11-12T01:06:56.419Z,102531.28
2022-11-12T01:09:23.258Z,102532.97
2022-11-12T01:11:50.107Z,102531.84
2022-11-12T01:14:17.974Z,102531.56
2022-11-12T01:16:44.776Z,102531.56
2022-11-12T01:19:12.628Z,102532.69
2022-11-12T01:21:40.669Z,102532.69
2022-11-12T01:24:07.677Z,102528.50
2022-11-12T01:26:34.444Z,102521.19
2022-11-12T01:29:01.214Z,102518.38
2022-11-12T01:31:29.398Z,102522.03
2022-11-12T01:33:57.478Z,102518.06
2022-11-12T01:36:24.757Z,102524.53
2022-11-12T01:38:52.380Z,102526.25
2022-11-12T01:41:21.058Z,102531.00
2022-11-12T01:43:47.800Z,102532.72
2022-11-12T01:46:14.869Z,102533.56
2022-11-12T01:48:47.528Z,102527.94
2022-11-12T01:51:15.157Z,102536.63
2022-11-12T01:53:45.267Z,102542.56
2022-11-12T01:56:12.348Z,102532.13
2022-11-12T01:58:40.476Z,102532.97
2022-11-12T02:01:07.416Z,102537.19
2022-11-12T02:03:34.427Z,102534.66
2022-11-12T02:06:03.498Z,102537.47
2022-11-12T02:08:31.205Z,102535.78
2022-11-12T02:10:58.107Z,102532.13
2022-11-12T02:13:35.025Z,102536.06
2022-11-12T02:16:03.197Z,102532.97
2022-11-12T02:18:30.108Z,102541.97
2022-11-12T02:20:58.399Z,102531.28
2022-11-12T02:23:25.445Z,102534.09
2022-11-12T02:25:52.344Z,102530.16
2022-11-12T02:28:19.517Z,102529.34
2022-11-12T02:30:47.852Z,102528.19
2022-11-12T02:33:14.878Z,102535.25
2022-11-12T02:35:41.767Z,102534.66
2022-11-12T02:38:09.255Z,102532.44
2022-11-12T02:40:36.165Z,102534.38
2022-11-12T02:43:03.015Z,102536.09
2022-11-12T02:45:31.094Z,102522.88
2022-11-12T02:47:57.914Z,102518.38
2022-11-12T02:50:24.805Z,102528.50
2022-11-12T02:52:51.565Z,102517.25
2022-11-12T02:55:18.765Z,102527.66
2022-11-12T02:57:45.785Z,102523.13
2022-11-12T03:00:13.434Z,102524.00
2022-11-12T03:02:43.129Z,102520.31
2022-11-12T03:05:11.509Z,102523.13
2022-11-12T03:07:38.534Z,102516.94
2022-11-12T03:10:06.068Z,102516.94
2022-11-12T03:12:33.156Z,102514.13
2022-11-12T03:14:59.975Z,102511.31
2022-11-12T03:17:26.885Z,102507.66
2022-11-12T03:19:53.725Z,102506.84
2022-11-12T03:22:20.525Z,102495.84
2022-11-12T03:24:47.505Z,102498.06
2022-11-12T03:27:14.307Z,102492.44
2022-11-12T03:29:41.067Z,102496.41
2022-11-12T03:32:07.997Z,102488.25
2022-11-12T03:34:34.865Z,102484.59
2022-11-12T03:37:01.760Z,102480.06
2022-11-12T03:39:28.636Z,102479.22
2022-11-12T03:41:55.377Z,102481.19
2022-11-12T03:44:22.204Z,102482.34
2022-11-12T03:46:49.214Z,102486.81
2022-11-12T03:49:15.889Z,102480.91
2022-11-12T03:51:42.804Z,102474.16
2022-11-12T03:54:09.537Z,102476.41
2022-11-12T03:56:36.318Z,102479.22
2022-11-12T03:59:03.368Z,102480.34
2022-11-12T04:01:30.119Z,102484.84
2022-11-12T04:03:56.916Z,102481.47
2022-11-12T04:06:32.930Z,102466.28
2022-11-12T04:08:59.654Z,102466.84
2022-11-12T04:11:26.405Z,102472.19
2022-11-12T04:13:53.127Z,102474.41
2022-11-12T04:16:30.852Z,102478.38
2022-11-12T04:19:08.016Z,102469.09
2022-11-12T04:21:46.836Z,102471.06
2022-11-12T04:24:33.605Z,102476.09
2022-11-12T04:27:00.498Z,102469.34
2022-11-12T04:29:37.735Z,102470.47
2022-11-12T04:32:04.619Z,102471.88
2022-11-12T04:34:31.415Z,102466.25
2022-11-12T04:36:58.178Z,102462.88
2022-11-12T04:39:24.986Z,102465.69
2022-11-12T04:42:02.749Z,102466.53
2022-11-12T04:44:38.866Z,102462.00
2022-11-12T04:47:05.541Z,102460.34
2022-11-12T04:49:32.330Z,102459.50
2022-11-12T04:52:09.286Z,102467.09
2022-11-12T04:54:35.997Z,102463.44
2022-11-12T04:57:02.880Z,102465.66
2022-11-12T04:59:29.766Z,102470.47
2022-11-12T05:01:56.620Z,102469.03
2022-11-12T05:04:23.684Z,102461.44
2022-11-12T05:06:51.725Z,102459.47
2022-11-12T05:09:19.028Z,102461.44
2022-11-12T05:11:46.085Z,102463.13
2022-11-12T05:14:12.944Z,102463.13
2022-11-12T05:16:39.988Z,102463.41
2022-11-12T05:19:06.847Z,102460.81
2022-11-12T05:21:43.719Z,102473.47
2022-11-12T05:24:27.363Z,102479.94
2022-11-12T05:26:57.915Z,102480.50
2022-11-12T05:29:24.642Z,102485.28
2022-11-12T05:31:51.456Z,102486.13
2022-11-12T05:34:22.733Z,102486.41
2022-11-12T05:36:49.895Z,102479.94
2022-11-12T05:39:16.777Z,102473.72
2022-11-12T05:42:10.905Z,102481.34
2022-11-12T05:44:30.206Z,102478.53
2022-11-12T05:46:57.259Z,102476.81
2022-11-12T05:49:23.954Z,102468.66
2022-11-12T05:51:51.843Z,102475.13
2022-11-12T05:54:19.015Z,102472.31
2022-11-12T05:56:46.225Z,102473.44
2022-11-12T05:59:14.016Z,102472.59
2022-11-12T06:01:44.745Z,102478.50
2022-11-12T06:04:12.144Z,102480.47
2022-11-12T06:06:40.834Z,102477.06
2022-11-12T06:09:07.803Z,102479.03
2022-11-12T06:11:34.703Z,102484.94
2022-11-12T06:14:01.949Z,102471.16
2022-11-12T06:16:28.709Z,102487.16
2022-11-12T06:18:55.506Z,102487.44
2022-11-12T06:21:23.209Z,102467.75
2022-11-12T06:23:52.315Z,102468.91
2022-11-12T06:26:19.996Z,102465.50
2022-11-12T06:28:47.199Z,102465.78
2022-11-12T06:31:14.578Z,102472.25
2022-11-12T06:33:41.424Z,102466.06
2022-11-12T06:36:08.865Z,102472.53
2022-11-12T06:38:37.199Z,102484.03
2022-11-12T06:41:04.643Z,102476.72
2022-11-12T06:43:32.476Z,102488.81
2022-11-12T06:46:01.185Z,102498.34
2022-11-12T06:48:28.745Z,102503.13
2022-11-12T06:50:56.067Z,102493.03
2022-11-12T06:53:22.875Z,102490.22
2022-11-12T06:55:49.583Z,102497.78
2022-11-12T06:58:16.465Z,102492.16
2022-11-12T07:00:43.246Z,102492.44
2022-11-12T07:03:10.357Z,102493.28
2022-11-12T07:05:38.445Z,102488.78
2022-11-12T07:08:06.556Z,102488.78
2022-11-12T07:10:33.435Z,102495.50
2022-11-12T07:13:00.259Z,102489.06
2022-11-12T07:15:26.965Z,102481.47
2022-11-12T07:17:53.766Z,102487.94
2022-11-12T07:20:20.555Z,102487.38
2022-11-12T07:22:47.339Z,102478.94
2022-11-12T07:25:14.249Z,102476.13
2022-11-12T07:27:40.966Z,102487.38
2022-11-12T07:30:09.046Z,102485.66
2022-11-12T07:32:41.909Z,102482.88
2022-11-12T07:35:10.235Z,102478.34
2022-11-12T07:37:37.247Z,102486.78
2022-11-12T07:40:04.877Z,102486.22
2022-11-12T07:42:33.266Z,102490.44
2022-11-12T07:45:00.149Z,102495.22
2022-11-12T07:47:27.496Z,102491.03
2022-11-12T07:49:54.388Z,102499.16
2022-11-12T07:52:21.427Z,102507.06
2022-11-12T07:54:48.209Z,102502.59
2022-11-12T07:57:14.980Z,102513.28
2022-11-12T07:59:45.890Z,102518.34
2022-11-12T08:02:13.227Z,102513.88
2022-11-12T08:04:40.155Z,102527.94
2022-11-12T08:07:07.194Z,102530.22
2022-11-12T08:09:34.078Z,102522.94
2022-11-12T08:12:01.117Z,102532.25
2022-11-12T08:14:27.990Z,102531.44
2022-11-12T08:16:54.856Z,102539.91
2022-11-12T08:19:21.768Z,102529.81
2022-11-12T08:21:48.516Z,102526.16
2022-11-12T08:24:15.449Z,102536.59
2022-11-12T08:26:42.396Z,102543.34
2022-11-12T08:29:09.278Z,102542.53
2022-11-12T08:31:36.435Z,102530.72
2022-11-12T08:34:12.594Z,102538.59
2022-11-12T08:36:40.788Z,102533.28
2022-11-12T08:39:08.047Z,102537.22
2022-11-12T08:41:35.117Z,102542.00
2022-11-12T08:44:08.145Z,102549.03
2022-11-12T08:46:35.577Z,102549.31
2022-11-12T08:49:02.627Z,102543.44
2022-11-12T08:51:29.461Z,102553.31
2022-11-12T08:53:56.607Z,102551.03
2022-11-12T08:56:23.386Z,102544.31
2022-11-12T08:58:50.572Z,102551.31
2022-11-12T09:01:17.453Z,102553.03
2022-11-12T09:03:44.563Z,102558.94
2022-11-12T09:06:11.696Z,102558.09
2022-11-12T09:08:39.957Z,102561.47
2022-11-12T09:11:07.103Z,102564.03
2022-11-12T09:13:34.539Z,102558.09
2022-11-12T09:16:02.890Z,102559.78
2022-11-12T09:18:30.167Z,102571.63
2022-11-12T09:21:07.389Z,102573.28
2022-11-12T09:23:35.289Z,102563.75
2022-11-12T09:26:02.359Z,102575.59
2022-11-12T09:28:29.304Z,102585.97
2022-11-12T09:30:56.395Z,102589.69
2022-11-12T09:33:26.328Z,102584.91
2022-11-12T09:35:53.628Z,102579.50
2022-11-12T09:38:21.007Z,102589.59
2022-11-12T09:40:55.660Z,102583.69
2022-11-12T09:43:28.981Z,102578.00
2022-11-12T09:46:13.885Z,102577.72
2022-11-12T09:48:48.415Z,102580.81
2022-11-12T09:51:16.500Z,102576.31
2022-11-12T09:53:52.340Z,102577.16
2022-11-12T09:56:20.670Z,102580.56
2022-11-12T09:58:47.690Z,102575.50
2022-11-12T10:01:18.357Z,102573.25
2022-11-12T10:03:55.089Z,102574.41
2022-11-12T10:06:24.115Z,102574.69
2022-11-12T10:08:58.987Z,102565.72
2022-11-12T10:11:27.061Z,102557.81
2022-11-12T10:14:01.296Z,102552.78
2022-11-12T10:16:43.620Z,102545.72
2022-11-12T10:19:20.268Z,102547.41
2022-11-12T10:21:56.576Z,102546.84
2022-11-12T10:24:24.500Z,102555.28
2022-11-12T10:26:52.468Z,102558.72
2022-11-12T10:29:29.208Z,102559.56
2022-11-12T10:31:55.965Z,102549.97
2022-11-12T10:34:23.670Z,102544.34
2022-11-12T10:36:55.599Z,102519.88
2022-11-12T10:39:32.238Z,102519.59
2022-11-12T10:42:03.673Z,102519.59
2022-11-12T10:44:30.503Z,102540.16
2022-11-12T10:47:17.188Z,102541.00
2022-11-12T10:49:44.146Z,102553.09
2022-11-12T10:52:20.111Z,102546.63
2022-11-12T10:54:52.365Z,102548.59
2022-11-12T10:57:22.040Z,102545.78
2022-11-12T11:00:06.202Z,102551.13
2022-11-12T11:02:33.244Z,102537.06
2022-11-12T11:05:00.027Z,102527.78
2022-11-12T11:07:28.891Z,102516.22
2022-11-12T11:09:57.209Z,102516.22
2022-11-12T11:12:25.991Z,102513.69
2022-11-12T11:15:01.974Z,102509.75
2022-11-12T11:17:28.854Z,102508.63
2022-11-12T11:19:55.702Z,102513.41
2022-11-12T11:22:29.016Z,102503.84
2022-11-12T11:25:15.719Z,102497.09
2022-11-12T11:27:51.373Z,102491.47
2022-11-12T11:30:20.314Z,102483.88
2022-11-12T11:32:57.125Z,102483.88
2022-11-12T11:35:33.063Z,102490.34
2022-11-12T11:38:19.807Z,102489.19
2022-11-12T11:40:54.232Z,102485.84
2022-11-12T11:43:31.649Z,102474.56
2022-11-12T11:46:08.544Z,102472.59
2022-11-12T11:48:50.445Z,102471.50
2022-11-12T11:51:27.544Z,102462.19
2022-11-12T11:54:04.083Z,102456.84
2022-11-12T11:56:34.727Z,102457.09
2022-11-12T11:59:02.317Z,102456.84
2022-11-12T12:01:30.331Z,102461.63
2022-11-12T12:03:57.947Z,102453.19
2022-11-12T12:06:27.407Z,102454.88
2022-11-12T12:08:56.452Z,102454.88
2022-11-12T12:11:30.996Z,102448.13
2022-11-12T12:14:01.437Z,102445.56
2022-11-12T12:16:38.165Z,102441.06
2022-11-12T12:19:12.190Z,102449.50
2022-11-12T12:21:41.483Z,102439.94
2022-11-12T12:24:28.243Z,102444.19
2022-11-12T12:26:58.002Z,102441.91
2022-11-12T12:29:29.762Z,102442.22
2022-11-12T12:32:02.236Z,102436.00
2022-11-12T12:34:33.485Z,102430.13
2022-11-12T12:37:04.225Z,102432.09
2022-11-12T12:39:41.248Z,102423.06
2022-11-12T12:42:18.801Z,102432.94
2022-11-12T12:44:59.992Z,102425.88
2022-11-12T12:47:30.476Z,102416.84
2022-11-12T12:49:59.305Z,102421.09
2022-11-12T12:52:26.495Z,102413.50
2022-11-12T12:54:56.768Z,102415.19
2022-11-12T12:57:26.910Z,102409.56
2022-11-12T13:00:15.586Z,102416.31
2022-11-12T13:02:43.037Z,102404.75
2022-11-12T13:05:23.741Z,102407.56
2022-11-12T13:07:51.681Z,102401.66
2022-11-12T13:10:28.186Z,102406.19
2022-11-12T13:13:04.064Z,102399.69
2022-11-12T13:15:48.133Z,102396.88
2022-11-12T13:18:35.051Z,102399.13
2022-11-12T13:21:11.102Z,102391.81
2022-11-12T13:23:57.932Z,102383.38
2022-11-12T13:26:34.301Z,102381.69
2022-11-12T13:29:11.411Z,102386.47
2022-11-12T13:31:40.365Z,102382.22
2022-11-12T13:34:19.201Z,102378.59
2022-11-12T13:36:59.448Z,102376.34
2022-11-12T13:39:27.963Z,102376.34
2022-11-12T13:42:07.004Z,102367.34
2022-11-12T13:44:35.718Z,102370.16
2022-11-12T13:47:03.165Z,102361.16
2022-11-12T13:49:30.890Z,102360.28
2022-11-12T13:51:58.267Z,102364.53
2022-11-12T13:54:25.649Z,102358.91
2022-11-12T13:56:52.825Z,102353.78
2022-11-12T13:59:21.234Z,102352.13
2022-11-12T14:01:50.081Z,102359.72
2022-11-12T14:04:18.613Z,102343.13
2022-11-12T14:06:49.200Z,102347.06
2022-11-12T14:09:24.072Z,102347.34
2022-11-12T14:12:01.177Z,102345.94
2022-11-12T14:14:38.478Z,102356.34
2022-11-12T14:17:06.027Z,102343.44
2022-11-12T14:19:43.630Z,102344.53
2022-11-12T14:22:13.470Z,102349.31
2022-11-12T14:24:41.087Z,102351.56
2022-11-12T14:27:19.026Z,102345.94
2022-11-12T14:29:46.300Z,102343.44
2022-11-12T14:32:14.082Z,102336.09
2022-11-12T14:34:41.323Z,102328.78
2022-11-12T14:37:19.789Z,102329.91
2022-11-12T14:39:47.336Z,102324.59
2022-11-12T14:42:15.938Z,102320.91
2022-11-12T14:44:43.329Z,102322.31
2022-11-12T14:47:10.918Z,102324.28
2022-11-12T14:49:43.963Z,102312.47
2022-11-12T14:52:16.807Z,102322.88
2022-11-12T14:54:48.074Z,102313.06
2022-11-12T14:57:20.003Z,102318.13
2022-11-12T14:59:47.593Z,102322.63
2022-11-12T15:02:43.915Z,102317.53
2022-11-12T15:05:13.161Z,102318.69
2022-11-12T15:07:52.245Z,102317.84
2022-11-12T15:10:29.469Z,102315.56
2022-11-12T15:13:06.167Z,102321.19
2022-11-12T15:15:34.640Z,102317.84
2022-11-12T15:18:03.956Z,102318.97
2022-11-12T15:20:31.239Z,102322.88
2022-11-12T15:22:58.767Z,102321.22
2022-11-12T15:25:27.753Z,102320.66
2022-11-12T15:27:55.065Z,102315.28
2022-11-12T15:30:25.363Z,102316.44
2022-11-12T15:33:12.420Z,102333.59
2022-11-12T15:35:44.639Z,102333.00
2022-11-12T15:38:15.793Z,102330.19
2022-11-12T15:40:46.270Z,102321.22
2022-11-12T15:43:15.336Z,102324.56
2022-11-12T15:45:42.633Z,102326.56
2022-11-12T15:48:12.036Z,102329.66
2022-11-12T15:50:39.884Z,102327.09
2022-11-12T15:53:07.329Z,102323.44
2022-11-12T15:55:35.605Z,102326.56
2022-11-12T15:58:02.918Z,102324.03
2022-11-12T16:00:33.125Z,102326.25
2022-11-12T16:03:04.768Z,102331.88
2022-11-12T16:05:32.250Z,102321.19
2022-11-12T16:08:00.193Z,102329.63
2022-11-12T16:10:27.548Z,102323.47
2022-11-12T16:12:58.972Z,102318.09
2022-11-12T16:15:26.966Z,102320.06
2022-11-12T16:17:56.710Z,102325.69
2022-11-12T16:20:25.676Z,102329.91
2022-11-12T16:22:53.996Z,102321.75
2022-11-12T16:25:23.029Z,102326.53
2022-11-12T16:27:55.583Z,102323.72
2022-11-12T16:30:24.871Z,102324.84
2022-11-12T16:32:52.465Z,102322.28
2022-11-12T16:35:20.642Z,102323.69
2022-11-12T16:37:48.226Z,102328.44
2022-11-12T16:40:17.148Z,102326.75
2022-11-12T16:42:48.177Z,102323.13
2022-11-12T16:45:20.413Z,102326.22
2022-11-12T16:47:49.437Z,102322.56
2022-11-12T16:50:17.744Z,102320.00
2022-11-12T16:52:46.156Z,102316.66
2022-11-12T16:55:13.591Z,102321.16
2022-11-12T16:57:41.566Z,102318.63
2022-11-12T17:00:11.678Z,102318.03
2022-11-12T17:02:43.754Z,102317.19
2022-11-12T17:05:15.584Z,102326.75
2022-11-12T17:07:42.813Z,102316.63
2022-11-12T17:10:10.627Z,102319.72
2022-11-12T17:12:41.037Z,102318.03
2022-11-12T17:15:09.094Z,102324.50
2022-11-12T17:17:36.675Z,102317.47
2022-11-12T17:20:04.082Z,102314.09
2022-11-12T17:22:32.132Z,102317.75
2022-11-12T17:24:59.664Z,102307.63
2022-11-12T17:27:28.054Z,102316.34
2022-11-12T17:29:55.537Z,102307.06
2022-11-12T17:32:23.184Z,102311.84
2022-11-12T17:34:54.080Z,102309.28
2022-11-12T17:37:21.611Z,102314.91
2022-11-12T17:39:49.091Z,102302.00
2022-11-12T17:42:16.517Z,102300.31
2022-11-12T17:44:46.250Z,102301.44
2022-11-12T17:47:14.083Z,102300.59
2022-11-12T17:49:41.919Z,102305.34
2022-11-12T17:52:09.234Z,102293.56
2022-11-12T17:54:37.394Z,102291.88
2022-11-12T17:57:05.046Z,102293.00
2022-11-12T17:59:32.386Z,102294.09
2022-11-12T18:01:59.991Z,102288.50
2022-11-12T18:04:30.762Z,102289.63
2022-11-12T18:06:58.779Z,102289.91
2022-11-12T18:09:25.977Z,102293.56
2022-11-12T18:11:55.297Z,102297.47
2022-11-12T18:14:23.615Z,102295.78
2022-11-12T18:16:51.898Z,102292.97
2022-11-12T18:19:19.234Z,102296.09
2022-11-12T18:21:46.789Z,102284.00
2022-11-12T18:24:14.830Z,102286.22
2022-11-12T18:26:42.859Z,102286.22
2022-11-12T18:29:10.012Z,102289.34
2022-11-12T18:31:37.311Z,102290.16
2022-11-12T18:34:05.610Z,102289.34
2022-11-12T18:36:34.268Z,102288.78
2022-11-12T18:39:04.561Z,102295.78
2022-11-12T18:41:33.513Z,102285.97
2022-11-12T18:44:01.634Z,102283.72
2022-11-12T18:46:28.889Z,102282.88
2022-11-12T18:48:56.144Z,102281.22
2022-11-12T18:51:23.653Z,102283.72
2022-11-12T18:53:50.916Z,102286.53
2022-11-12T18:56:19.754Z,102278.41
2022-11-12T18:58:47.173Z,102289.06
2022-11-12T19:01:16.962Z,102283.44
2022-11-12T19:03:44.928Z,102285.13
2022-11-12T19:06:13.234Z,102282.03
2022-11-12T19:08:41.077Z,102275.56
2022-11-12T19:11:10.298Z,102271.38
2022-11-12T19:13:38.220Z,102281.78
2022-11-12T19:16:05.851Z,102273.34
2022-11-12T19:18:33.602Z,102271.66
2022-11-12T19:21:05.399Z,102272.78
2022-11-12T19:23:32.844Z,102265.78
2022-11-12T19:26:01.395Z,102260.16
2022-11-12T19:28:29.677Z,102259.34
2022-11-12T19:30:57.401Z,102264.97
2022-11-12T19:33:27.017Z,102261.56
2022-11-12T19:35:54.343Z,102268.91
2022-11-12T19:38:21.628Z,102271.72
2022-11-12T19:40:49.004Z,102272.88
2022-11-12T19:43:16.911Z,102272.84
2022-11-12T19:45:44.434Z,102265.56
2022-11-12T19:48:11.712Z,102259.91
2022-11-12T19:50:38.950Z,102265.53
2022-11-12T19:53:06.154Z,102269.75
2022-11-12T19:55:38.675Z,102265.25
2022-11-12T19:58:07.364Z,102264.69
2022-11-12T20:00:35.099Z,102269.75
2022-11-12T20:03:02.463Z,102266.38
2022-11-12T20:05:30.223Z,102266.63
2022-11-12T20:07:57.692Z,102260.75
2022-11-12T20:10:25.156Z,102264.94
2022-11-12T20:12:52.510Z,102263.53
2022-11-12T20:15:19.867Z,102259.59
2022-11-12T20:17:46.921Z,102255.38
2022-11-12T20:20:14.188Z,102254.25
2022-11-12T20:22:41.672Z,102255.09
2022-11-12T20:25:09.686Z,102246.34
2022-11-12T20:27:36.837Z,102262.13
2022-11-12T20:30:04.635Z,102251.72
2022-11-12T20:32:31.907Z,102250.59
2022-11-12T20:35:01.565Z,102253.41
2022-11-12T20:37:29.970Z,102252.25
2022-11-12T20:39:57.178Z,102253.09
2022-11-12T20:42:24.210Z,102253.09
2022-11-12T20:44:51.433Z,102249.44
2022-11-12T20:47:19.359Z,102255.06
2022-11-12T20:49:46.475Z,102255.63
2022-11-12T20:52:15.046Z,102254.78
2022-11-12T20:54:42.083Z,102258.72
2022-11-12T20:57:09.129Z,102255.91
2022-11-12T20:59:41.484Z,102257.59
2022-11-12T21:02:10.274Z,102258.44
2022-11-12T21:04:37.951Z,102254.78
2022-11-12T21:07:05.706Z,102250.00
2022-11-12T21:09:32.956Z,102257.31
2022-11-12T21:12:01.452Z,102261.25
2022-11-12T21:14:28.465Z,102266.88
2022-11-12T21:16:56.036Z,102277.03
2022-11-12T21:19:23.100Z,102272.25
2022-11-12T21:21:50.258Z,102262.94
2022-11-12T21:24:17.621Z,102260.97
2022-11-12T21:26:44.639Z,102258.72
2022-11-12T21:29:13.545Z,102255.91
2022-11-12T21:31:43.632Z,102266.88
2022-11-12T21:34:11.304Z,102271.09
2022-11-12T21:36:38.552Z,102259.84
2022-11-12T21:39:05.967Z,102271.09
2022-11-12T21:41:33.124Z,102264.66
2022-11-12T21:44:00.266Z,102268.84
2022-11-12T21:46:28.949Z,102254.78
2022-11-12T21:48:56.820Z,102262.09
2022-11-12T21:51:25.573Z,102249.16
2022-11-12T21:53:53.920Z,102265.19
2022-11-12T21:56:21.076Z,102252.25
2022-11-12T21:58:48.397Z,102254.25
2022-11-12T22:01:17.797Z,102247.78
2022-11-12T22:03:45.305Z,102247.78
2022-11-12T22:06:12.522Z,102244.97
2022-11-12T22:08:40.261Z,102237.38
2022-11-12T22:11:08.699Z,102239.34
2022-11-12T22:13:37.455Z,102238.50
2022-11-12T22:16:07.000Z,102234.81
2022-11-12T22:18:35.321Z,102223.00
2022-11-12T22:21:04.517Z,102225.53
2022-11-12T22:23:36.394Z,102219.34
2022-11-12T22:26:04.592Z,102226.38
2022-11-12T22:28:31.542Z,102222.97
2022-11-12T22:31:03.629Z,102217.91
2022-11-12T22:33:30.612Z,102224.94
2022-11-12T22:36:00.897Z,102215.91
2022-11-12T22:38:28.059Z,102215.38
2022-11-12T22:41:00.633Z,102213.41
2022-11-12T22:43:27.462Z,102215.38
2022-11-12T22:45:54.223Z,102215.66
2022-11-12T22:48:21.311Z,102218.19
2022-11-12T22:50:48.223Z,102207.47
2022-11-12T22:53:15.042Z,102206.06
2022-11-12T22:55:42.072Z,102208.56
2022-11-12T22:58:09.935Z,102209.41
2022-11-12T23:00:36.889Z,102205.47
2022-11-12T23:03:03.770Z,102205.47
2022-11-12T23:05:30.552Z,102200.41
2022-11-12T23:07:57.641Z,102191.13
2022-11-12T23:10:24.446Z,102194.78
2022-11-12T23:12:51.267Z,102188.31
2022-11-12T23:15:18.353Z,102188.00
2022-11-12T23:17:45.220Z,102189.97
2022-11-12T23:20:12.200Z,102186.03
2022-11-12T23:22:39.180Z,102182.38
2022-11-12T23:25:06.672Z,102183.22
2022-11-12T23:27:33.491Z,102179.56
2022-11-12T23:30:00.462Z,102186.88
2022-11-12T23:32:27.261Z,102189.69
2022-11-12T23:34:53.979Z,102191.66
2022-11-12T23:37:20.877Z,102200.94
2022-11-12T23:39:47.652Z,102201.81
2022-11-12T23:42:14.675Z,102196.16
2022-11-12T23:44:41.562Z,102186.88
2022-11-12T23:47:08.481Z,102192.50
2022-11-12T23:49:35.332Z,102188.84
2022-11-12T23:52:02.134Z,102186.59
2022-11-12T23:54:29.012Z,102191.09
2022-11-12T23:56:55.824Z,102189.94
2022-11-12T23:59:22.682Z,102183.19
